sensor_id;sensor_type;location;lat;lon;timestamp;pressure;altitude;pressure_sealevel;temperature;humidity
23953;BME280;12163;49.316;6.092;2023-04-01T00:01:23;97869.34;;;11.12;70.99
23953;BME280;12163;49.316;6.092;2023-04-01T00:03:50;97872.69;;;11.09;72.16
23953;BME280;12163;49.316;6.092;2023-04-01T00:06:17;97874.34;;;11.01;72.36
23953;BME280;12163;49.316;6.092;2023-04-01T00:08:45;97865.66;;;10.96;73.00
23953;BME280;12163;49.316;6.092;2023-04-01T00:11:12;97872.94;;;10.95;72.93
23953;BME280;12163;49.316;6.092;2023-04-01T00:13:38;97869.91;;;10.97;73.42
23953;BME280;12163;49.316;6.092;2023-04-01T00:16:07;97871.03;;;10.96;72.91
23953;BME280;12163;49.316;6.092;2023-04-01T00:18:47;97856.44;;;10.97;73.08
23953;BME280;12163;49.316;6.092;2023-04-01T00:21:15;97860.03;;;11.01;72.62
23953;BME280;12163;49.316;6.092;2023-04-01T00:23:42;97874.00;;;11.03;72.70
23953;BME280;12163;49.316;6.092;2023-04-01T00:26:10;97864.31;;;11.02;72.63
23953;BME280;12163;49.316;6.092;2023-04-01T00:28:38;97882.91;;;11.03;71.98
23953;BME280;12163;49.316;6.092;2023-04-01T00:31:09;97865.25;;;11.06;71.66
23953;BME280;12163;49.316;6.092;2023-04-01T00:33:37;97873.81;;;11.08;71.91
23953;BME280;12163;49.316;6.092;2023-04-01T00:36:11;97867.63;;;11.07;71.65
23953;BME280;12163;49.316;6.092;2023-04-01T00:38:38;97859.84;;;11.06;72.02
23953;BME280;12163;49.316;6.092;2023-04-01T00:41:05;97861.09;;;11.08;72.27
23953;BME280;12163;49.316;6.092;2023-04-01T00:43:33;97847.63;;;11.08;71.78
23953;BME280;12163;49.316;6.092;2023-04-01T00:45:59;97857.59;;;11.08;71.55
23953;BME280;12163;49.316;6.092;2023-04-01T00:48:53;97874.47;;;11.05;71.42
23953;BME280;12163;49.316;6.092;2023-04-01T00:51:25;97866.38;;;11.05;71.71
23953;BME280;12163;49.316;6.092;2023-04-01T00:53:53;97864.84;;;10.95;72.32
23953;BME280;12163;49.316;6.092;2023-04-01T00:56:25;97869.72;;;11.02;72.51
23953;BME280;12163;49.316;6.092;2023-04-01T00:58:54;97864.06;;;10.95;73.66
23953;BME280;12163;49.316;6.092;2023-04-01T01:01:23;97857.75;;;10.91;73.83
23953;BME280;12163;49.316;6.092;2023-04-01T01:03:51;97863.66;;;10.84;74.31
23953;BME280;12163;49.316;6.092;2023-04-01T01:09:12;97863.69;;;10.76;74.70
23953;BME280;12163;49.316;6.092;2023-04-01T01:11:45;97862.13;;;10.75;74.78
23953;BME280;12163;49.316;6.092;2023-04-01T01:17:06;97860.53;;;10.74;75.16
23953;BME280;12163;49.316;6.092;2023-04-01T01:22:52;97863.25;;;10.74;75.21
23953;BME280;12163;49.316;6.092;2023-04-01T01:31:12;97835.34;;;10.70;75.07
23953;BME280;12163;49.316;6.092;2023-04-01T01:36:19;97840.09;;;10.73;74.70
23953;BME280;12163;49.316;6.092;2023-04-01T01:38:48;97840.34;;;10.80;74.39
23953;BME280;12163;49.316;6.092;2023-04-01T01:41:17;97850.03;;;10.81;74.67
23953;BME280;12163;49.316;6.092;2023-04-01T01:43:47;97847.06;;;10.74;75.02
23953;BME280;12163;49.316;6.092;2023-04-01T01:46:19;97841.06;;;10.68;75.20
23953;BME280;12163;49.316;6.092;2023-04-01T01:48:47;97845.66;;;10.68;75.71
23953;BME280;12163;49.316;6.092;2023-04-01T01:51:16;97839.16;;;10.69;75.75
23953;BME280;12163;49.316;6.092;2023-04-01T01:53:43;97837.59;;;10.68;75.95
23953;BME280;12163;49.316;6.092;2023-04-01T01:56:11;97841.41;;;10.67;76.01
23953;BME280;12163;49.316;6.092;2023-04-01T01:58:43;97834.72;;;10.64;75.45
23953;BME280;12163;49.316;6.092;2023-04-01T02:01:14;97838.22;;;10.65;75.92
23953;BME280;12163;49.316;6.092;2023-04-01T02:03:43;97828.38;;;10.69;75.51
23953;BME280;12163;49.316;6.092;2023-04-01T02:06:14;97823.44;;;10.71;75.47
23953;BME280;12163;49.316;6.092;2023-04-01T02:11:30;97817.69;;;10.72;74.19
23953;BME280;12163;49.316;6.092;2023-04-01T02:16:34;97820.69;;;10.79;73.53
23953;BME280;12163;49.316;6.092;2023-04-01T02:19:03;97817.63;;;10.81;73.49
23953;BME280;12163;49.316;6.092;2023-04-01T02:21:34;97815.41;;;10.83;73.10
23953;BME280;12163;49.316;6.092;2023-04-01T02:24:06;97815.56;;;10.86;72.79
23953;BME280;12163;49.316;6.092;2023-04-01T02:26:34;97817.19;;;10.79;72.86
23953;BME280;12163;49.316;6.092;2023-04-01T02:29:02;97831.94;;;10.81;73.61
23953;BME280;12163;49.316;6.092;2023-04-01T02:31:31;97820.22;;;10.77;73.38
23953;BME280;12163;49.316;6.092;2023-04-01T02:33:58;97823.25;;;10.76;73.91
23953;BME280;12163;49.316;6.092;2023-04-01T02:36:25;97823.91;;;10.73;74.84
23953;BME280;12163;49.316;6.092;2023-04-01T02:38:54;97828.38;;;10.69;74.83
23953;BME280;12163;49.316;6.092;2023-04-01T02:41:22;97815.84;;;10.64;75.24
23953;BME280;12163;49.316;6.092;2023-04-01T02:43:48;97821.09;;;10.61;75.43
23953;BME280;12163;49.316;6.092;2023-04-01T02:46:15;97820.53;;;10.55;75.30
23953;BME280;12163;49.316;6.092;2023-04-01T02:48:41;97833.19;;;10.55;76.35
23953;BME280;12163;49.316;6.092;2023-04-01T02:51:08;97826.41;;;10.49;76.17
23953;BME280;12163;49.316;6.092;2023-04-01T02:53:35;97817.41;;;10.45;76.79
23953;BME280;12163;49.316;6.092;2023-04-01T02:56:02;97812.66;;;10.42;76.80
23953;BME280;12163;49.316;6.092;2023-04-01T02:58:28;97814.88;;;10.40;77.19
23953;BME280;12163;49.316;6.092;2023-04-01T03:00:55;97806.31;;;10.38;77.11
23953;BME280;12163;49.316;6.092;2023-04-01T03:03:21;97815.53;;;10.37;77.18
23953;BME280;12163;49.316;6.092;2023-04-01T03:05:48;97805.41;;;10.34;77.57
23953;BME280;12163;49.316;6.092;2023-04-01T03:08:15;97797.97;;;10.31;77.65
23953;BME280;12163;49.316;6.092;2023-04-01T03:10:41;97799.75;;;10.27;78.31
23953;BME280;12163;49.316;6.092;2023-04-01T03:13:08;97800.38;;;10.24;78.53
23953;BME280;12163;49.316;6.092;2023-04-01T03:15:34;97796.44;;;10.21;78.08
23953;BME280;12163;49.316;6.092;2023-04-01T03:18:02;97797.53;;;10.20;78.29
23953;BME280;12163;49.316;6.092;2023-04-01T03:20:30;97793.25;;;10.19;78.73
23953;BME280;12163;49.316;6.092;2023-04-01T03:22:56;97794.69;;;10.17;78.66
23953;BME280;12163;49.316;6.092;2023-04-01T03:25:23;97773.66;;;10.10;79.10
23953;BME280;12163;49.316;6.092;2023-04-01T03:27:50;97802.03;;;10.08;79.57
23953;BME280;12163;49.316;6.092;2023-04-01T03:30:17;97799.06;;;10.01;79.86
23953;BME280;12163;49.316;6.092;2023-04-01T03:32:44;97807.75;;;9.98;80.07
23953;BME280;12163;49.316;6.092;2023-04-01T03:35:10;97794.44;;;9.93;80.46
23953;BME280;12163;49.316;6.092;2023-04-01T03:37:37;97789.88;;;9.94;80.92
23953;BME280;12163;49.316;6.092;2023-04-01T03:40:04;97789.88;;;9.94;81.18
23953;BME280;12163;49.316;6.092;2023-04-01T03:42:31;97793.69;;;9.93;81.55
23953;BME280;12163;49.316;6.092;2023-04-01T03:44:58;97780.53;;;9.91;81.66
23953;BME280;12163;49.316;6.092;2023-04-01T03:47:25;97792.88;;;9.92;81.88
23953;BME280;12163;49.316;6.092;2023-04-01T03:49:51;97786.06;;;9.95;81.86
23953;BME280;12163;49.316;6.092;2023-04-01T03:52:18;97795.72;;;9.96;81.69
23953;BME280;12163;49.316;6.092;2023-04-01T03:54:45;97796.97;;;9.98;82.26
23953;BME280;12163;49.316;6.092;2023-04-01T03:57:11;97771.63;;;9.99;82.19
23953;BME280;12163;49.316;6.092;2023-04-01T03:59:38;97789.53;;;10.03;82.08
23953;BME280;12163;49.316;6.092;2023-04-01T04:02:04;97776.53;;;10.05;81.85
23953;BME280;12163;49.316;6.092;2023-04-01T04:04:31;97775.28;;;10.03;81.85
23953;BME280;12163;49.316;6.092;2023-04-01T04:06:58;97773.38;;;10.03;82.58
23953;BME280;12163;49.316;6.092;2023-04-01T04:09:25;97785.59;;;10.01;82.46
23953;BME280;12163;49.316;6.092;2023-04-01T04:11:51;97751.97;;;9.98;82.39
23953;BME280;12163;49.316;6.092;2023-04-01T04:14:18;97764.63;;;9.98;82.46
23953;BME280;12163;49.316;6.092;2023-04-01T04:16:45;97761.94;;;9.98;82.50
23953;BME280;12163;49.316;6.092;2023-04-01T04:19:11;97767.00;;;9.99;82.99
23953;BME280;12163;49.316;6.092;2023-04-01T04:21:39;97776.41;;;10.02;82.72
23953;BME280;12163;49.316;6.092;2023-04-01T04:24:06;97768.78;;;10.04;82.44
23953;BME280;12163;49.316;6.092;2023-04-01T04:26:33;97770.34;;;10.05;82.36
23953;BME280;12163;49.316;6.092;2023-04-01T04:29:01;97773.97;;;10.09;82.28
23953;BME280;12163;49.316;6.092;2023-04-01T04:31:28;97770.34;;;10.05;82.79
23953;BME280;12163;49.316;6.092;2023-04-01T04:33:55;97771.00;;;10.02;82.97
23953;BME280;12163;49.316;6.092;2023-04-01T04:36:22;97769.56;;;9.96;83.29
23953;BME280;12163;49.316;6.092;2023-04-01T04:38:49;97771.31;;;9.92;83.50
23953;BME280;12163;49.316;6.092;2023-04-01T04:41:17;97769.75;;;9.91;84.11
23953;BME280;12163;49.316;6.092;2023-04-01T04:43:53;97774.34;;;9.91;83.98
23953;BME280;12163;49.316;6.092;2023-04-01T04:46:20;97771.78;;;9.94;83.69
23953;BME280;12163;49.316;6.092;2023-04-01T04:48:47;97762.59;;;9.95;83.86
23953;BME280;12163;49.316;6.092;2023-04-01T04:51:15;97756.09;;;9.96;83.20
23953;BME280;12163;49.316;6.092;2023-04-01T04:53:42;97781.78;;;10.02;83.76
23953;BME280;12163;49.316;6.092;2023-04-01T04:56:09;97784.56;;;10.14;83.56
23953;BME280;12163;49.316;6.092;2023-04-01T04:58:37;97793.03;;;10.33;82.41
23953;BME280;12163;49.316;6.092;2023-04-01T05:01:09;97791.59;;;10.35;82.43
23953;BME280;12163;49.316;6.092;2023-04-01T05:03:37;97786.47;;;10.42;82.38
23953;BME280;12163;49.316;6.092;2023-04-01T05:06:05;97784.09;;;10.41;82.51
23953;BME280;12163;49.316;6.092;2023-04-01T05:08:32;97790.44;;;10.45;82.63
23953;BME280;12163;49.316;6.092;2023-04-01T05:11:00;97791.81;;;10.51;82.38
23953;BME280;12163;49.316;6.092;2023-04-01T05:13:27;97789.41;;;10.58;81.61
23953;BME280;12163;49.316;6.092;2023-04-01T05:15:54;97786.66;;;10.66;81.26
23953;BME280;12163;49.316;6.092;2023-04-01T05:18:21;97782.81;;;10.67;80.92
23953;BME280;12163;49.316;6.092;2023-04-01T05:20:50;97776.78;;;10.91;81.95
23953;BME280;12163;49.316;6.092;2023-04-01T05:23:17;97765.19;;;11.11;81.56
23953;BME280;12163;49.316;6.092;2023-04-01T05:25:44;97775.22;;;11.43;80.28
23953;BME280;12163;49.316;6.092;2023-04-01T05:28:11;97764.81;;;11.65;78.86
23953;BME280;12163;49.316;6.092;2023-04-01T05:30:42;97769.84;;;11.55;77.95
23953;BME280;12163;49.316;6.092;2023-04-01T05:33:10;97775.03;;;11.27;77.97
23953;BME280;12163;49.316;6.092;2023-04-01T05:35:37;97766.50;;;11.05;78.81
23953;BME280;12163;49.316;6.092;2023-04-01T05:38:04;97779.03;;;10.89;79.53
23953;BME280;12163;49.316;6.092;2023-04-01T05:40:33;97772.97;;;10.71;80.32
23953;BME280;12163;49.316;6.092;2023-04-01T05:43:00;97785.72;;;10.62;80.60
23953;BME280;12163;49.316;6.092;2023-04-01T05:45:27;97770.25;;;10.51;81.80
23953;BME280;12163;49.316;6.092;2023-04-01T05:47:54;97782.53;;;10.40;82.26
23953;BME280;12163;49.316;6.092;2023-04-01T05:50:20;97790.34;;;10.33;82.39
23953;BME280;12163;49.316;6.092;2023-04-01T05:52:47;97776.09;;;10.32;82.92
23953;BME280;12163;49.316;6.092;2023-04-01T05:55:14;97791.66;;;10.27;83.59
23953;BME280;12163;49.316;6.092;2023-04-01T05:57:40;97784.88;;;10.21;83.94
23953;BME280;12163;49.316;6.092;2023-04-01T06:00:07;97788.66;;;10.20;84.54
23953;BME280;12163;49.316;6.092;2023-04-01T06:02:34;97799.13;;;10.21;84.94
23953;BME280;12163;49.316;6.092;2023-04-01T06:07:37;97796.88;;;10.23;84.76
23953;BME280;12163;49.316;6.092;2023-04-01T06:10:11;97798.66;;;10.19;85.24
23953;BME280;12163;49.316;6.092;2023-04-01T06:13:03;97801.19;;;10.16;85.94
23953;BME280;12163;49.316;6.092;2023-04-01T06:15:39;97811.53;;;10.14;86.24
23953;BME280;12163;49.316;6.092;2023-04-01T06:34:46;97827.41;;;10.07;87.45
23953;BME280;12163;49.316;6.092;2023-04-01T06:37:37;97823.59;;;10.08;87.71
23953;BME280;12163;49.316;6.092;2023-04-01T06:43:19;97833.88;;;10.14;87.78
23953;BME280;12163;49.316;6.092;2023-04-01T06:45:57;97831.31;;;10.18;88.35
23953;BME280;12163;49.316;6.092;2023-04-01T06:49:02;97834.00;;;10.18;87.59
23953;BME280;12163;49.316;6.092;2023-04-01T06:51:45;97841.78;;;10.19;88.02
23953;BME280;12163;49.316;6.092;2023-04-01T06:54:28;97844.16;;;10.21;88.00
23953;BME280;12163;49.316;6.092;2023-04-01T06:59:48;97848.25;;;10.27;87.54
23953;BME280;12163;49.316;6.092;2023-04-01T07:03:31;97864.44;;;10.27;87.55
23953;BME280;12163;49.316;6.092;2023-04-01T07:05:30;97853.78;;;10.30;87.50
23953;BME280;12163;49.316;6.092;2023-04-01T07:08:01;97863.13;;;10.33;87.41
23953;BME280;12163;49.316;6.092;2023-04-01T07:10:47;97849.34;;;10.34;87.54
23953;BME280;12163;49.316;6.092;2023-04-01T07:13:25;97872.94;;;10.37;86.97
23953;BME280;12163;49.316;6.092;2023-04-01T07:18:42;97857.25;;;10.39;87.20
23953;BME280;12163;49.316;6.092;2023-04-01T07:21:25;97866.09;;;10.40;87.04
23953;BME280;12163;49.316;6.092;2023-04-01T07:23:54;97864.38;;;10.44;87.07
23953;BME280;12163;49.316;6.092;2023-04-01T07:26:24;97866.88;;;10.49;86.94
23953;BME280;12163;49.316;6.092;2023-04-01T07:28:52;97876.66;;;10.53;86.79
23953;BME280;12163;49.316;6.092;2023-04-01T07:49:04;97887.13;;;10.55;86.08
23953;BME280;12163;49.316;6.092;2023-04-01T07:54:26;97900.78;;;10.58;86.68
23953;BME280;12163;49.316;6.092;2023-04-01T07:57:03;97893.28;;;10.64;86.06
23953;BME280;12163;49.316;6.092;2023-04-01T08:05:03;97898.38;;;10.57;86.54
23953;BME280;12163;49.316;6.092;2023-04-01T08:07:44;97897.16;;;10.54;87.39
23953;BME280;12163;49.316;6.092;2023-04-01T08:10:26;97907.78;;;10.51;87.30
23953;BME280;12163;49.316;6.092;2023-04-01T08:16:06;97915.69;;;10.56;87.60
23953;BME280;12163;49.316;6.092;2023-04-01T08:18:41;97912.16;;;10.64;87.14
23953;BME280;12163;49.316;6.092;2023-04-01T08:21:24;97913.56;;;10.70;87.29
23953;BME280;12163;49.316;6.092;2023-04-01T08:23:55;97919.56;;;10.75;87.00
23953;BME280;12163;49.316;6.092;2023-04-01T08:29:13;97926.94;;;10.87;86.84
23953;BME280;12163;49.316;6.092;2023-04-01T08:31:43;97924.75;;;10.89;86.14
23953;BME280;12163;49.316;6.092;2023-04-01T08:34:20;97930.91;;;10.89;86.37
23953;BME280;12163;49.316;6.092;2023-04-01T08:36:58;97930.75;;;10.86;86.78
23953;BME280;12163;49.316;6.092;2023-04-01T08:39:31;97928.56;;;10.88;87.05
23953;BME280;12163;49.316;6.092;2023-04-01T08:53:43;97938.81;;;10.94;85.95
23953;BME280;12163;49.316;6.092;2023-04-01T08:56:18;97945.28;;;11.02;85.49
23953;BME280;12163;49.316;6.092;2023-04-01T09:16:31;97965.94;;;10.98;84.51
23953;BME280;12163;49.316;6.092;2023-04-01T09:21:58;97977.41;;;10.95;85.57
23953;BME280;12163;49.316;6.092;2023-04-01T09:28:06;97964.56;;;10.92;85.88
23953;BME280;12163;49.316;6.092;2023-04-01T09:33:40;97955.16;;;10.98;85.76
23953;BME280;12163;49.316;6.092;2023-04-01T09:39:36;97968.94;;;11.05;85.75
23953;BME280;12163;49.316;6.092;2023-04-01T09:45:16;97962.31;;;11.23;84.52
23953;BME280;12163;49.316;6.092;2023-04-01T09:53:28;97955.09;;;11.35;84.55
23953;BME280;12163;49.316;6.092;2023-04-01T10:04:27;97966.88;;;11.60;82.66
23953;BME280;12163;49.316;6.092;2023-04-01T10:12:47;97968.44;;;11.61;83.02
23953;BME280;12163;49.316;6.092;2023-04-01T10:21:16;97981.69;;;11.74;82.63
23953;BME280;12163;49.316;6.092;2023-04-01T10:27:16;97985.84;;;11.92;80.64
23953;BME280;12163;49.316;6.092;2023-04-01T10:44:18;97993.69;;;12.17;79.30
23953;BME280;12163;49.316;6.092;2023-04-01T10:53:28;97991.19;;;12.00;80.56
23953;BME280;12163;49.316;6.092;2023-04-01T11:14:50;97999.22;;;11.88;79.59
23953;BME280;12163;49.316;6.092;2023-04-01T11:26:08;98013.13;;;11.78;81.15
23953;BME280;12163;49.316;6.092;2023-04-01T11:31:32;98030.06;;;11.67;81.94
23953;BME280;12163;49.316;6.092;2023-04-01T11:37:11;98010.19;;;11.63;81.83
23953;BME280;12163;49.316;6.092;2023-04-01T11:46:10;98033.81;;;11.95;79.71
23953;BME280;12163;49.316;6.092;2023-04-01T11:48:58;98046.88;;;12.13;78.89
23953;BME280;12163;49.316;6.092;2023-04-01T11:58:15;98022.59;;;12.70;74.87
23953;BME280;12163;49.316;6.092;2023-04-01T12:09:46;98044.03;;;13.19;72.64
23953;BME280;12163;49.316;6.092;2023-04-01T12:18:20;98064.22;;;13.34;71.99
23953;BME280;12163;49.316;6.092;2023-04-01T12:35:10;98083.50;;;12.96;72.00
23953;BME280;12163;49.316;6.092;2023-04-01T13:08:38;98113.78;;;12.16;77.54
23953;BME280;12163;49.316;6.092;2023-04-01T13:11:13;98105.97;;;12.23;78.21
23953;BME280;12163;49.316;6.092;2023-04-01T13:28:50;98121.56;;;11.97;78.80
23953;BME280;12163;49.316;6.092;2023-04-01T13:31:48;98129.50;;;11.73;78.88
23953;BME280;12163;49.316;6.092;2023-04-01T13:42:28;98146.78;;;11.44;80.90
23953;BME280;12163;49.316;6.092;2023-04-01T13:45:02;98153.47;;;11.46;80.36
23953;BME280;12163;49.316;6.092;2023-04-01T14:01:08;98142.31;;;11.48;80.11
23953;BME280;12163;49.316;6.092;2023-04-01T14:03:49;98149.69;;;11.39;78.10
23953;BME280;12163;49.316;6.092;2023-04-01T14:14:52;98149.94;;;11.46;78.32
23953;BME280;12163;49.316;6.092;2023-04-01T14:17:46;98157.13;;;11.42;79.10
23953;BME280;12163;49.316;6.092;2023-04-01T14:20:40;98155.34;;;11.46;78.40
23953;BME280;12163;49.316;6.092;2023-04-01T14:29:10;98167.25;;;11.62;78.65
23953;BME280;12163;49.316;6.092;2023-04-01T14:31:53;98170.88;;;11.66;78.78
23953;BME280;12163;49.316;6.092;2023-04-01T14:34:43;98174.06;;;11.59;78.36
23953;BME280;12163;49.316;6.092;2023-04-01T14:40:22;98161.78;;;11.33;79.32
23953;BME280;12163;49.316;6.092;2023-04-01T14:43:07;98173.53;;;11.28;79.73
23953;BME280;12163;49.316;6.092;2023-04-01T14:48:38;98177.00;;;11.29;78.49
23953;BME280;12163;49.316;6.092;2023-04-01T14:59:14;98182.66;;;11.53;77.16
23953;BME280;12163;49.316;6.092;2023-04-01T15:02:03;98181.88;;;11.52;78.29
23953;BME280;12163;49.316;6.092;2023-04-01T15:24:07;98203.06;;;11.33;79.94
23953;BME280;12163;49.316;6.092;2023-04-01T15:27:13;98207.81;;;11.36;77.92
23953;BME280;12163;49.316;6.092;2023-04-01T15:38:53;98202.13;;;11.21;74.62
23953;BME280;12163;49.316;6.092;2023-04-01T15:43:44;98208.84;;;11.15;75.30
23953;BME280;12163;49.316;6.092;2023-04-01T15:46:19;98196.56;;;11.26;75.92
23953;BME280;12163;49.316;6.092;2023-04-01T15:48:57;98200.31;;;11.50;74.91
23953;BME280;12163;49.316;6.092;2023-04-01T16:04:48;98218.72;;;12.02;74.33
23953;BME280;12163;49.316;6.092;2023-04-01T16:09:59;98220.09;;;11.79;75.45
23953;BME280;12163;49.316;6.092;2023-04-01T16:15:24;98219.50;;;11.66;75.93
23953;BME280;12163;49.316;6.092;2023-04-01T16:18:09;98220.81;;;11.60;76.65
23953;BME280;12163;49.316;6.092;2023-04-01T16:20:46;98236.56;;;11.58;76.93
23953;BME280;12163;49.316;6.092;2023-04-01T16:23:24;98247.03;;;11.59;76.93
23953;BME280;12163;49.316;6.092;2023-04-01T16:26:03;98228.44;;;11.58;76.31
23953;BME280;12163;49.316;6.092;2023-04-01T16:36:55;98253.88;;;11.40;76.85
23953;BME280;12163;49.316;6.092;2023-04-01T16:45:08;98255.78;;;11.39;76.34
23953;BME280;12163;49.316;6.092;2023-04-01T16:47:54;98251.00;;;11.45;76.78
23953;BME280;12163;49.316;6.092;2023-04-01T16:50:53;98260.06;;;11.40;76.42
23953;BME280;12163;49.316;6.092;2023-04-01T16:53:34;98250.88;;;11.33;75.85
23953;BME280;12163;49.316;6.092;2023-04-01T16:56:10;98260.56;;;11.34;76.26
23953;BME280;12163;49.316;6.092;2023-04-01T17:01:49;98254.53;;;11.28;77.07
23953;BME280;12163;49.316;6.092;2023-04-01T17:06:47;98262.78;;;11.32;77.38
23953;BME280;12163;49.316;6.092;2023-04-01T17:14:33;98262.66;;;11.20;77.39
23953;BME280;12163;49.316;6.092;2023-04-01T17:17:28;98269.16;;;11.10;77.48
23953;BME280;12163;49.316;6.092;2023-04-01T17:23:01;98264.41;;;11.07;77.43
23953;BME280;12163;49.316;6.092;2023-04-01T17:25:41;98273.00;;;11.01;77.44
23953;BME280;12163;49.316;6.092;2023-04-01T17:31:20;98264.59;;;10.94;76.86
23953;BME280;12163;49.316;6.092;2023-04-01T17:42:51;98286.78;;;10.74;77.17
23953;BME280;12163;49.316;6.092;2023-04-01T17:45:27;98282.03;;;10.71;77.29
23953;BME280;12163;49.316;6.092;2023-04-01T17:56:47;98298.03;;;10.59;78.02
23953;BME280;12163;49.316;6.092;2023-04-01T17:59:49;98298.84;;;10.59;78.12
23953;BME280;12163;49.316;6.092;2023-04-01T18:20:33;98333.88;;;10.51;79.19
23953;BME280;12163;49.316;6.092;2023-04-01T18:26:23;98330.34;;;10.42;79.26
23953;BME280;12163;49.316;6.092;2023-04-01T18:29:01;98329.72;;;10.36;79.60
23953;BME280;12163;49.316;6.092;2023-04-01T18:31:36;98337.63;;;10.33;79.90
23953;BME280;12163;49.316;6.092;2023-04-01T18:35:19;98343.94;;;10.28;80.10
23953;BME280;12163;49.316;6.092;2023-04-01T18:37:18;98345.06;;;10.27;80.08
23953;BME280;12163;49.316;6.092;2023-04-01T18:39:50;98352.66;;;10.25;80.18
23953;BME280;12163;49.316;6.092;2023-04-01T18:42:38;98352.66;;;10.25;80.99
23953;BME280;12163;49.316;6.092;2023-04-01T18:45:21;98361.09;;;10.24;80.87
23953;BME280;12163;49.316;6.092;2023-04-01T18:53:30;98366.81;;;10.31;80.72
23953;BME280;12163;49.316;6.092;2023-04-01T18:56:00;98375.38;;;10.33;81.02
23953;BME280;12163;49.316;6.092;2023-04-01T19:08:53;98386.16;;;10.33;81.30
23953;BME280;12163;49.316;6.092;2023-04-01T19:11:37;98392.19;;;10.30;81.29
23953;BME280;12163;49.316;6.092;2023-04-01T19:17:10;98401.56;;;10.32;81.64
23953;BME280;12163;49.316;6.092;2023-04-01T19:27:53;98421.06;;;10.38;82.20
23953;BME280;12163;49.316;6.092;2023-04-01T19:30:58;98416.16;;;10.40;82.76
23953;BME280;12163;49.316;6.092;2023-04-01T19:33:58;98426.47;;;10.38;82.58
23953;BME280;12163;49.316;6.092;2023-04-01T19:37:03;98419.63;;;10.32;83.21
23953;BME280;12163;49.316;6.092;2023-04-01T19:40:19;98425.81;;;10.32;83.34
23953;BME280;12163;49.316;6.092;2023-04-01T19:42:55;98432.97;;;10.37;83.00
23953;BME280;12163;49.316;6.092;2023-04-01T19:49:02;98441.06;;;10.37;83.01
23953;BME280;12163;49.316;6.092;2023-04-01T19:51:50;98437.38;;;10.33;83.42
23953;BME280;12163;49.316;6.092;2023-04-01T19:55:09;98447.06;;;10.34;83.62
23953;BME280;12163;49.316;6.092;2023-04-01T19:57:34;98452.16;;;10.35;83.47
23953;BME280;12163;49.316;6.092;2023-04-01T20:00:18;98446.44;;;10.37;83.54
23953;BME280;12163;49.316;6.092;2023-04-01T20:02:55;98451.22;;;10.40;83.62
23953;BME280;12163;49.316;6.092;2023-04-01T20:05:46;98462.00;;;10.40;83.56
23953;BME280;12163;49.316;6.092;2023-04-01T20:08:26;98457.09;;;10.42;83.36
23953;BME280;12163;49.316;6.092;2023-04-01T20:11:21;98470.41;;;10.38;83.71
23953;BME280;12163;49.316;6.092;2023-04-01T20:19:24;98474.56;;;10.44;83.63
23953;BME280;12163;49.316;6.092;2023-04-01T20:21:56;98486.16;;;10.45;83.38
23953;BME280;12163;49.316;6.092;2023-04-01T20:24:30;98479.97;;;10.44;83.14
23953;BME280;12163;49.316;6.092;2023-04-01T20:27:14;98480.44;;;10.46;83.10
23953;BME280;12163;49.316;6.092;2023-04-01T20:29:56;98476.34;;;10.49;82.99
23953;BME280;12163;49.316;6.092;2023-04-01T20:32:31;98489.50;;;10.50;83.28
23953;BME280;12163;49.316;6.092;2023-04-01T20:37:49;98489.97;;;10.44;82.78
23953;BME280;12163;49.316;6.092;2023-04-01T20:40:40;98493.75;;;10.43;82.61
23953;BME280;12163;49.316;6.092;2023-04-01T20:45:58;98493.75;;;10.43;83.16
23953;BME280;12163;49.316;6.092;2023-04-01T20:51:39;98496.94;;;10.45;83.08
23953;BME280;12163;49.316;6.092;2023-04-01T20:54:27;98497.72;;;10.45;83.11
23953;BME280;12163;49.316;6.092;2023-04-01T21:06:14;98513.13;;;10.45;82.95
23953;BME280;12163;49.316;6.092;2023-04-01T21:08:56;98511.53;;;10.44;82.76
23953;BME280;12163;49.316;6.092;2023-04-01T21:29:36;98526.38;;;10.33;82.72
23953;BME280;12163;49.316;6.092;2023-04-01T21:49:43;98539.97;;;10.28;82.87
23953;BME280;12163;49.316;6.092;2023-04-01T21:55:36;98542.97;;;10.26;82.21
23953;BME280;12163;49.316;6.092;2023-04-01T21:58:30;98549.97;;;10.27;82.28
23953;BME280;12163;49.316;6.092;2023-04-01T22:07:20;98557.69;;;10.20;82.31
23953;BME280;12163;49.316;6.092;2023-04-01T22:10:15;98560.19;;;10.17;82.12
23953;BME280;12163;49.316;6.092;2023-04-01T22:12:55;98559.09;;;10.18;81.96
23953;BME280;12163;49.316;6.092;2023-04-01T22:15:54;98557.63;;;10.12;81.63
23953;BME280;12163;49.316;6.092;2023-04-01T22:18:34;98555.25;;;10.10;81.68
23953;BME280;12163;49.316;6.092;2023-04-01T22:21:30;98555.41;;;10.14;81.92
23953;BME280;12163;49.316;6.092;2023-04-01T22:24:33;98559.81;;;10.10;81.91
23953;BME280;12163;49.316;6.092;2023-04-01T22:30:10;98568.03;;;10.05;81.73
23953;BME280;12163;49.316;6.092;2023-04-01T22:32:48;98567.44;;;10.08;81.98
23953;BME280;12163;49.316;6.092;2023-04-01T22:43:38;98574.63;;;9.99;81.51
23953;BME280;12163;49.316;6.092;2023-04-01T22:49:10;98577.13;;;9.96;81.75
23953;BME280;12163;49.316;6.092;2023-04-01T22:56:52;98574.84;;;9.89;81.79
23953;BME280;12163;49.316;6.092;2023-04-01T23:02:21;98574.84;;;9.89;82.14
23953;BME280;12163;49.316;6.092;2023-04-01T23:04:58;98574.53;;;9.91;81.71
23953;BME280;12163;49.316;6.092;2023-04-01T23:10:21;98571.03;;;9.90;81.74
23953;BME280;12163;49.316;6.092;2023-04-01T23:12:51;98575.31;;;9.91;81.81
23953;BME280;12163;49.316;6.092;2023-04-01T23:15:21;98577.25;;;9.91;81.88
23953;BME280;12163;49.316;6.092;2023-04-01T23:23:32;98591.91;;;9.85;82.59
23953;BME280;12163;49.316;6.092;2023-04-01T23:26:06;98591.63;;;9.86;83.08
23953;BME280;12163;49.316;6.092;2023-04-01T23:28:41;98595.41;;;9.85;82.94
23953;BME280;12163;49.316;6.092;2023-04-01T23:31:26;98597.00;;;9.86;83.34
23953;BME280;12163;49.316;6.092;2023-04-01T23:34:24;98612.56;;;9.89;83.58
23953;BME280;12163;49.316;6.092;2023-04-01T23:36:54;98607.97;;;9.90;83.51
23953;BME280;12163;49.316;6.092;2023-04-01T23:39:40;98611.25;;;9.87;83.66